Time;durP1;ratioP1;P1;durP2;ratioP2;P2;SDS_P1;SDS_P2;PMS_P1;PMS_P2;Temp;Humidity;BMP_temperature;BMP_pressure;BME280_temperature;BME280_humidity;BME280_pressure;Samples;Min_cycle;Max_cycle;Signal;HPM_P1;HPM_P2
2021/08/14 00:02:20;;;;;;;13.70;7.07;;;;;;;16.07;77.85;100257.25;5012244;28;20433;-60
2021/08/14 00:04:46;;;;;;;13.13;7.07;;;;;;;16.11;78.10;100269.44;5012720;28;20030;-61
2021/08/14 00:07:11;;;;;;;10.35;6.95;;;;;;;16.07;78.10;100271.63;5013107;28;20374;-60
2021/08/14 00:09:37;;;;;;;17.60;7.80;;;;;;;16.07;78.29;100277.03;5013304;28;20030;-61
2021/08/14 00:12:04;;;;;;;11.32;6.88;;;;;;;16.06;78.00;100271.75;5013434;28;20058;-62
2021/08/14 00:14:30;;;;;;;16.98;7.32;;;;;;;16.04;78.67;100281.84;5013442;28;20143;-61
2021/08/14 00:16:55;;;;;;;17.25;7.18;;;;;;;16.02;78.43;100278.44;5012870;28;20029;-61
2021/08/14 00:19:21;;;;;;;15.45;7.22;;;;;;;15.97;78.30;100278.06;5013547;28;20113;-61
2021/08/14 00:21:46;;;;;;;12.10;7.00;;;;;;;15.95;78.26;100280.06;5013184;28;20030;-62
2021/08/14 00:24:12;;;;;;;13.80;8.30;;;;;;;15.93;78.53;100281.06;5022832;28;20386;-61
2021/08/14 00:26:38;;;;;;;14.90;7.38;;;;;;;15.90;78.70;100281.31;5032015;28;20045;-60
2021/08/14 00:29:04;;;;;;;15.52;7.53;;;;;;;15.91;78.57;100282.19;5048228;28;20032;-61
2021/08/14 00:31:29;;;;;;;12.52;7.22;;;;;;;15.92;78.60;100292.84;5032699;28;20053;-61
2021/08/14 00:33:55;;;;;;;16.33;7.35;;;;;;;15.85;78.59;100289.00;5019345;28;20449;-61
2021/08/14 00:36:20;;;;;;;11.00;6.80;;;;;;;15.87;78.87;100295.09;5013279;28;20112;-61
2021/08/14 00:38:46;;;;;;;19.23;7.93;;;;;;;15.77;79.04;100272.69;5013311;28;20053;-62
2021/08/14 00:41:11;;;;;;;13.30;6.60;;;;;;;15.87;79.12;100299.66;5017737;28;20424;-60
2021/08/14 00:43:38;;;;;;;9.82;6.85;;;;;;;15.86;78.73;100296.09;5032657;28;20442;-61
2021/08/14 00:46:04;;;;;;;10.55;6.85;;;;;;;15.81;78.82;100297.53;5032963;28;20026;-61
2021/08/14 00:48:30;;;;;;;11.13;7.05;;;;;;;15.82;78.90;100296.56;5032417;28;20033;-61
2021/08/14 00:50:57;;;;;;;13.77;7.47;;;;;;;15.83;78.91;100300.94;5032375;28;20071;-61
2021/08/14 00:53:22;;;;;;;15.82;7.10;;;;;;;15.84;79.03;100305.34;5032411;28;20033;-61
2021/08/14 00:55:48;;;;;;;12.90;6.88;;;;;;;15.83;78.84;100304.47;5032848;28;20032;-64
2021/08/14 00:58:13;;;;;;;11.13;6.93;;;;;;;15.81;78.60;100314.59;5032770;28;20070;-61
2021/08/14 01:00:43;;;;;;;10.68;6.95;;;;;;;15.84;78.60;100311.59;5032341;28;20288;-60
2021/08/14 01:03:09;;;;;;;13.60;6.88;;;;;;;15.78;78.67;100314.88;5032342;28;20399;-61
2021/08/14 01:05:39;;;;;;;13.95;6.78;;;;;;;15.58;78.77;100277.13;5032612;28;20041;-62
2021/08/14 01:08:05;;;;;;;12.50;7.45;;;;;;;15.73;78.91;100304.50;5032261;28;20037;-60
2021/08/14 01:10:31;;;;;;;12.50;6.95;;;;;;;15.73;79.08;100312.59;5032034;28;20119;-60
2021/08/14 01:12:59;;;;;;;10.32;7.53;;;;;;;15.71;78.95;100306.50;5031823;28;20120;-61
2021/08/14 01:15:24;;;;;;;11.57;7.30;;;;;;;15.66;78.96;100298.00;5032096;28;20025;-62
2021/08/14 01:17:50;;;;;;;13.88;7.65;;;;;;;15.67;79.33;100307.78;5046785;28;20083;-61
2021/08/14 01:20:16;;;;;;;11.40;7.43;;;;;;;15.67;79.56;100306.94;5032366;28;20033;-62
2021/08/14 01:22:41;;;;;;;13.82;6.78;;;;;;;15.64;79.44;100316.19;5032023;28;20469;-60
2021/08/14 01:25:08;;;;;;;12.52;7.50;;;;;;;15.67;79.67;100310.50;5032938;28;20045;-61
2021/08/14 01:27:43;;;;;;;12.63;6.95;;;;;;;15.74;79.28;100310.78;5031922;28;20474;-62
2021/08/14 01:30:09;;;;;;;10.18;6.65;;;;;;;15.64;79.32;100305.41;5031621;28;20029;-61
2021/08/14 01:32:36;;;;;;;9.93;6.63;;;;;;;15.61;79.63;100306.53;5031355;28;20071;-61
2021/08/14 01:35:01;;;;;;;10.40;6.93;;;;;;;15.65;79.87;100315.19;5031768;28;20052;-62
2021/08/14 01:37:31;;;;;;;11.07;6.40;;;;;;;15.64;79.31;100317.03;5031809;28;20033;-60
2021/08/14 01:39:57;;;;;;;10.95;6.45;;;;;;;15.61;79.58;100320.00;5031605;28;20032;-62
2021/08/14 01:42:23;;;;;;;8.48;6.85;;;;;;;15.59;79.67;100313.09;5031473;28;20040;-61
2021/08/14 01:44:48;;;;;;;8.18;6.63;;;;;;;15.58;79.69;100320.31;5031556;28;20029;-61
2021/08/14 01:47:14;;;;;;;9.20;6.45;;;;;;;15.57;79.56;100315.06;5031602;28;20029;-60
2021/08/14 01:49:39;;;;;;;8.88;6.85;;;;;;;15.54;80.04;100307.25;5031441;28;20109;-60
2021/08/14 01:52:14;;;;;;;10.30;6.97;;;;;;;15.63;79.84;100319.88;5029828;28;20041;-61
2021/08/14 01:54:40;;;;;;;9.73;6.70;;;;;;;15.55;80.10;100312.50;5028276;28;20484;-61
2021/08/14 01:57:06;;;;;;;13.57;6.93;;;;;;;15.52;79.99;100304.69;5031188;28;20059;-60
2021/08/14 01:59:33;;;;;;;13.57;7.10;;;;;;;15.53;79.86;100309.09;5029943;28;20422;-61
2021/08/14 02:01:59;;;;;;;8.68;6.40;;;;;;;15.54;80.05;100320.72;5031243;28;20029;-60
2021/08/14 02:04:24;;;;;;;13.02;7.10;;;;;;;15.53;80.06;100305.53;5031256;28;20108;-61
2021/08/14 02:06:50;;;;;;;11.75;6.82;;;;;;;15.55;79.93;100312.50;5031516;28;20434;-61
2021/08/14 02:09:15;;;;;;;9.93;6.10;;;;;;;15.56;79.81;100313.38;5031325;28;20104;-62
2021/08/14 02:11:41;;;;;;;14.68;6.50;;;;;;;15.56;79.76;100321.47;5030802;28;20547;-61
2021/08/14 02:14:06;;;;;;;9.80;6.80;;;;;;;15.59;79.72;100324.72;5031117;28;20537;-61
2021/08/14 02:16:35;;;;;;;11.73;6.65;;;;;;;15.43;79.86;100292.91;5031346;28;20041;-62
2021/08/14 02:19:02;;;;;;;10.55;6.63;;;;;;;15.60;79.76;100318.31;5030721;28;20477;-60
2021/08/14 02:21:28;;;;;;;11.75;6.80;;;;;;;15.67;79.73;100325.81;5030973;28;20079;-60
2021/08/14 02:23:55;;;;;;;10.55;6.60;;;;;;;15.70;79.73;100320.16;5031006;28;20030;-61
2021/08/14 02:26:20;;;;;;;11.55;6.88;;;;;;;15.73;79.56;100319.88;5031363;28;20032;-61
2021/08/14 02:28:46;;;;;;;9.32;6.30;;;;;;;15.77;79.53;100315.88;5032790;28;20025;-60
2021/08/14 02:31:12;;;;;;;11.77;7.05;;;;;;;15.80;79.09;100320.97;5055198;28;20119;-61
2021/08/14 02:33:37;;;;;;;14.57;6.90;;;;;;;15.84;79.13;100325.09;5055384;28;20048;-60
2021/08/14 02:36:04;;;;;;;8.55;6.70;;;;;;;15.88;78.80;100326.53;5054852;28;20194;-61
2021/08/14 02:38:30;;;;;;;11.95;7.10;;;;;;;15.89;78.56;100322.00;5055132;28;20116;-61
2021/08/14 02:40:56;;;;;;;12.30;7.78;;;;;;;15.95;78.47;100323.25;5055079;28;20148;-61
2021/08/14 02:43:21;;;;;;;11.80;6.88;;;;;;;15.98;78.38;100322.97;5055310;28;20158;-61
2021/08/14 02:45:47;;;;;;;10.23;6.88;;;;;;;16.03;78.32;100317.97;5053570;28;20083;-61
2021/08/14 02:48:14;;;;;;;14.15;7.38;;;;;;;16.09;78.00;100322.78;5054612;28;20032;-61
2021/08/14 02:50:44;;;;;;;10.82;7.15;;;;;;;16.19;77.93;100334.41;5053881;28;20480;-60
2021/08/14 02:53:10;;;;;;;13.10;7.13;;;;;;;16.17;77.61;100328.31;5054677;28;20473;-61
2021/08/14 02:55:35;;;;;;;13.75;7.20;;;;;;;16.25;77.51;100324.84;5054296;28;20032;-62
2021/08/14 02:58:01;;;;;;;11.20;7.07;;;;;;;16.34;77.12;100328.50;5053373;28;20132;-61
2021/08/14 03:00:26;;;;;;;18.42;7.90;;;;;;;16.41;76.65;100329.63;5054692;28;20029;-61
2021/08/14 03:02:52;;;;;;;15.00;8.30;;;;;;;16.49;76.42;100324.31;5052878;28;20025;-61
2021/08/14 03:05:17;;;;;;;15.07;8.02;;;;;;;16.57;75.91;100322.69;5054627;28;20037;-61
2021/08/14 03:07:43;;;;;;;11.00;7.55;;;;;;;16.64;75.20;100321.94;5054329;28;20029;-61
2021/08/14 03:10:09;;;;;;;13.48;7.85;;;;;;;16.61;75.15;100306.03;5054535;28;20032;-62
2021/08/14 03:12:34;;;;;;;15.07;7.80;;;;;;;16.74;74.79;100316.47;5054570;28;20033;-61
2021/08/14 03:15:00;;;;;;;15.60;7.72;;;;;;;16.87;74.39;100323.34;5054354;28;20071;-61
2021/08/14 03:17:25;;;;;;;14.20;7.60;;;;;;;16.96;73.95;100327.00;5054353;28;20037;-63
2021/08/14 03:19:51;;;;;;;11.85;7.57;;;;;;;17.03;73.60;100328.16;5054206;28;20032;-60
2021/08/14 03:22:16;;;;;;;16.23;7.35;;;;;;;17.10;73.01;100320.25;5054535;28;20033;-60
2021/08/14 03:24:42;;;;;;;12.23;6.82;;;;;;;17.19;72.70;100322.88;5054286;28;20037;-61
2021/08/14 03:27:07;;;;;;;13.95;7.05;;;;;;;17.27;72.53;100321.25;5053907;28;20033;-61
2021/08/14 03:29:33;;;;;;;10.70;7.00;;;;;;;17.34;72.35;100328.56;5054365;28;20419;-61
2021/08/14 03:31:59;;;;;;;13.15;7.35;;;;;;;17.39;72.19;100328.13;5054425;28;20429;-62
2021/08/14 03:34:25;;;;;;;12.20;7.20;;;;;;;17.46;71.80;100328.34;5054113;28;20499;-61
2021/08/14 03:36:51;;;;;;;13.90;7.10;;;;;;;17.57;70.95;100336.22;5052575;28;20124;-62
2021/08/14 03:39:16;;;;;;;10.93;6.55;;;;;;;17.71;70.49;100328.53;5052087;28;20029;-62
2021/08/14 03:41:42;;;;;;;12.95;6.72;;;;;;;17.85;70.09;100336.09;5053226;28;20037;-62
2021/08/14 03:44:07;;;;;;;8.60;6.20;;;;;;;17.99;69.68;100333.78;5053693;28;20040;-60
2021/08/14 03:46:33;;;;;;;9.27;6.10;;;;;;;18.08;69.15;100332.84;5053386;28;20438;-61
2021/08/14 03:48:58;;;;;;;12.07;7.05;;;;;;;18.40;68.16;100339.47;5053353;28;20025;-61
2021/08/14 03:51:24;;;;;;;12.88;5.47;;;;;;;19.27;65.12;100332.94;5053716;28;20073;-61
2021/08/14 03:53:50;;;;;;;12.50;5.90;;;;;;;20.64;60.61;100328.59;5053070;28;20389;-62
2021/08/14 03:56:15;;;;;;;13.45;5.95;;;;;;;22.16;55.72;100321.63;5053179;28;20105;-62
2021/08/14 03:58:41;;;;;;;9.95;5.53;;;;;;;23.58;51.41;100321.38;5053334;28;20036;-60
2021/08/14 04:01:06;;;;;;;10.70;5.28;;;;;;;24.71;48.05;100313.19;5053031;28;20338;-60
2021/08/14 04:03:32;;;;;;;9.05;5.18;;;;;;;25.90;45.08;100323.69;5053238;28;20388;-60
2021/08/14 04:05:58;;;;;;;8.20;5.30;;;;;;;26.77;42.74;100322.63;5053470;28;20028;-61
2021/08/14 04:08:23;;;;;;;13.15;5.57;;;;;;;27.60;40.83;100326.34;5052794;28;20522;-60
2021/08/14 04:10:49;;;;;;;9.43;5.15;;;;;;;28.49;38.99;100316.97;5052978;28;20032;-61
2021/08/14 04:13:14;;;;;;;8.98;5.65;;;;;;;29.26;36.67;100320.16;5052864;28;20029;-61
2021/08/14 04:15:40;;;;;;;7.97;5.03;;;;;;;29.94;35.14;100320.75;5052906;28;20029;-61
2021/08/14 04:18:05;;;;;;;7.80;5.10;;;;;;;30.44;34.07;100307.47;5053129;28;20029;-62
2021/08/14 04:20:31;;;;;;;8.55;5.13;;;;;;;31.15;32.88;100316.56;5053168;28;20029;-62
2021/08/14 04:22:57;;;;;;;8.88;5.30;;;;;;;31.87;31.84;100323.34;5052612;28;20484;-61
2021/08/14 04:25:23;;;;;;;10.45;5.20;;;;;;;32.46;30.70;100334.97;5052844;28;20333;-61
2021/08/14 04:27:48;;;;;;;7.40;4.68;;;;;;;32.92;29.56;100326.34;5053137;28;20037;-61
2021/08/14 04:30:14;;;;;;;12.77;5.50;;;;;;;33.38;28.79;100320.38;5052817;28;20378;-61
2021/08/14 04:32:40;;;;;;;8.50;4.53;;;;;;;33.83;28.09;100318.25;5052320;28;20047;-61
2021/08/14 04:35:07;;;;;;;6.13;4.53;;;;;;;34.45;26.92;100323.31;5052939;28;20033;-61
2021/08/14 04:37:33;;;;;;;10.15;4.85;;;;;;;35.04;26.18;100324.94;5052715;28;20516;-59
2021/08/14 04:39:58;;;;;;;10.88;4.80;;;;;;;35.59;25.30;100335.53;5052732;28;20039;-61
2021/08/14 04:42:24;;;;;;;9.75;4.65;;;;;;;35.99;24.52;100335.75;5052005;28;20030;-61
2021/08/14 04:44:50;;;;;;;10.32;4.85;;;;;;;36.17;23.96;100326.00;5052604;28;20035;-62
2021/08/14 04:47:15;;;;;;;7.22;5.15;;;;;;;36.60;23.36;100341.44;5052636;28;20036;-61
2021/08/14 04:49:40;;;;;;;6.15;4.55;;;;;;;37.08;22.40;100340.06;5052801;28;20033;-62
2021/08/14 04:52:06;;;;;;;9.43;5.00;;;;;;;37.60;22.11;100335.75;5051461;28;20020;-60
2021/08/14 04:54:31;;;;;;;7.40;4.40;;;;;;;38.08;21.29;100334.16;5052112;28;20077;-61
2021/08/14 04:56:57;;;;;;;12.93;5.07;;;;;;;38.43;20.98;100342.41;5051563;28;20499;-62
2021/08/14 04:59:22;;;;;;;9.25;4.70;;;;;;;38.72;20.39;100342.31;5052117;28;20028;-61
2021/08/14 05:01:48;;;;;;;9.80;4.50;;;;;;;39.11;20.31;100350.75;5051721;28;20481;-61
2021/08/14 05:04:13;;;;;;;12.57;4.70;;;;;;;39.48;19.23;100349.03;5051810;28;20035;-60
2021/08/14 05:06:40;;;;;;;10.43;4.63;;;;;;;39.95;19.16;100354.69;5051001;28;20432;-59
2021/08/14 05:09:05;;;;;;;11.90;4.38;;;;;;;40.39;18.42;100346.81;5052105;28;20040;-59
2021/08/14 05:11:31;;;;;;;6.30;4.20;;;;;;;40.92;17.88;100352.16;5052261;28;20025;-60
2021/08/14 05:13:56;;;;;;;6.05;3.88;;;;;;;41.35;17.46;100353.66;5050331;28;20083;-60
2021/08/14 05:16:24;;;;;;;5.80;4.40;;;;;;;41.58;17.12;100352.47;5051865;28;20033;-61
2021/08/14 05:18:51;;;;;;;5.70;4.10;;;;;;;41.89;16.91;100346.06;5051694;28;20468;-60
2021/08/14 05:21:16;;;;;;;9.13;4.47;;;;;;;42.39;16.16;100341.28;5051734;28;20103;-59
2021/08/14 05:23:41;;;;;;;6.15;4.30;;;;;;;42.77;15.77;100341.88;5051407;28;20482;-60
2021/08/14 05:26:07;;;;;;;5.13;4.20;;;;;;;42.99;15.70;100329.63;5051925;28;20033;-61
2021/08/14 05:28:32;;;;;;;6.93;4.20;;;;;;;43.13;15.27;100341.56;5051761;28;20086;-62
2021/08/14 05:30:58;;;;;;;5.82;4.20;;;;;;;43.43;15.41;100335.25;5050228;28;20499;-63
2021/08/14 05:33:24;;;;;;;6.53;4.38;;;;;;;43.77;14.92;100339.16;5051166;28;20040;-61
2021/08/14 05:35:49;;;;;;;6.63;4.25;;;;;;;44.15;14.50;100335.53;5051305;28;20385;-61
2021/08/14 05:38:15;;;;;;;5.15;4.43;;;;;;;44.58;14.16;100344.06;5051445;28;20035;-60
2021/08/14 05:40:40;;;;;;;5.85;4.07;;;;;;;45.07;13.82;100343.53;5051364;28;20050;-63
2021/08/14 05:43:07;;;;;;;7.07;4.13;;;;;;;45.46;13.27;100340.53;5051127;28;20035;-61
2021/08/14 05:45:33;;;;;;;7.05;4.47;;;;;;;45.81;13.09;100340.13;5051469;28;20029;-60
2021/08/14 05:48:04;;;;;;;5.03;4.35;;;;;;;46.23;12.87;100352.44;5051065;28;20036;-63
2021/08/14 05:50:30;;;;;;;8.27;4.38;;;;;;;46.02;12.68;100344.84;5051252;28;20039;-62
2021/08/14 05:52:56;;;;;;;4.90;4.40;;;;;;;46.32;12.61;100339.00;5051184;28;20111;-60
2021/08/14 05:55:21;;;;;;;9.90;4.55;;;;;;;46.67;11.94;100318.63;5050706;28;20033;-62
2021/08/14 05:57:46;;;;;;;4.97;4.00;;;;;;;47.30;11.50;100322.09;5051062;28;20036;-61
2021/08/14 06:00:12;;;;;;;5.45;4.50;;;;;;;47.84;11.36;100340.53;5050904;28;20032;-61
2021/08/14 06:02:38;;;;;;;6.00;4.07;;;;;;;48.23;10.82;100333.34;5050333;28;20041;-62
2021/08/14 06:05:04;;;;;;;6.82;3.90;;;;;;;48.24;10.51;100306.66;5050783;28;20029;-61
2021/08/14 06:07:29;;;;;;;8.50;3.95;;;;;;;48.65;10.64;100332.72;5051554;28;20127;-63
2021/08/14 06:09:55;;;;;;;9.57;4.70;;;;;;;49.23;9.82;100338.81;5050918;28;20112;-62
2021/08/14 06:12:20;;;;;;;12.45;4.88;;;;;;;49.83;9.84;100337.47;5051023;28;20064;-62
2021/08/14 06:14:46;;;;;;;9.27;4.65;;;;;;;49.92;9.27;100334.34;5051265;28;20036;-61
2021/08/14 06:17:11;;;;;;;14.27;5.45;;;;;;;50.10;9.06;100331.81;5051027;28;20140;-61
2021/08/14 06:19:37;;;;;;;7.38;4.53;;;;;;;50.35;9.19;100334.22;5050776;28;20021;-63
2021/08/14 06:22:03;;;;;;;7.40;4.80;;;;;;;50.48;8.91;100337.66;5051102;28;20029;-65
2021/08/14 06:24:29;;;;;;;7.95;4.45;;;;;;;50.66;8.66;100327.38;5050984;28;20092;-62
2021/08/14 06:26:54;;;;;;;7.95;4.22;;;;;;;50.94;8.58;100328.94;5050825;28;20025;-60
2021/08/14 06:29:20;;;;;;;7.53;4.97;;;;;;;50.96;8.43;100328.53;5050887;28;20033;-60
2021/08/14 06:31:46;;;;;;;7.18;4.63;;;;;;;51.18;8.20;100323.06;5050692;28;20052;-60
2021/08/14 06:34:11;;;;;;;6.00;4.75;;;;;;;51.51;8.04;100318.53;5050545;28;20045;-60
2021/08/14 06:36:37;;;;;;;9.70;5.10;;;;;;;51.80;8.09;100319.59;5050653;28;20032;-64
2021/08/14 06:39:02;;;;;;;6.53;4.43;;;;;;;52.17;7.83;100329.28;5050766;28;20025;-64
2021/08/14 06:41:28;;;;;;;9.13;4.80;;;;;;;51.98;7.70;100318.94;5051131;28;20041;-62
2021/08/14 06:43:53;;;;;;;13.63;4.85;;;;;;;52.00;7.79;100312.88;5050799;28;20457;-60
2021/08/14 06:46:19;;;;;;;7.25;4.95;;;;;;;52.26;7.63;100320.34;5050518;28;20028;-62
2021/08/14 06:48:45;;;;;;;6.18;4.60;;;;;;;52.49;7.39;100302.97;5050783;28;20542;-61
2021/08/14 06:51:12;;;;;;;8.88;4.85;;;;;;;52.47;7.24;100316.00;5038922;28;20489;-61
2021/08/14 06:53:38;;;;;;;9.48;4.60;;;;;;;52.42;7.25;100294.34;5030990;28;20099;-66
2021/08/14 06:56:03;;;;;;;5.47;4.53;;;;;;;52.79;6.89;100309.59;5031245;28;20462;-61
2021/08/14 06:58:29;;;;;;;6.13;4.80;;;;;;;53.29;6.86;100306.06;5030489;28;20486;-61
2021/08/14 07:00:54;;;;;;;6.57;4.72;;;;;;;53.73;6.24;100312.66;5030889;28;20029;-63
2021/08/14 07:03:20;;;;;;;5.63;4.47;;;;;;;54.12;6.50;100304.44;5030905;28;20396;-62
2021/08/14 07:05:45;;;;;;;8.57;5.30;;;;;;;54.42;5.71;100320.34;5029350;28;20030;-61
2021/08/14 07:08:11;;;;;;;5.43;4.82;;;;;;;54.64;5.73;100312.47;5028131;28;20121;-61
2021/08/14 07:10:36;;;;;;;6.55;4.93;;;;;;;54.87;5.54;100317.69;5030822;28;20055;-60
2021/08/14 07:13:02;;;;;;;5.68;4.60;;;;;;;55.39;5.24;100313.28;5030572;28;20025;-60
2021/08/14 07:15:28;;;;;;;5.80;5.15;;;;;;;55.43;5.30;100322.69;5032076;28;20038;-62
2021/08/14 07:17:54;;;;;;;5.00;4.50;;;;;;;55.49;5.38;100323.06;5033882;28;20083;-59
2021/08/14 07:20:19;;;;;;;5.33;4.90;;;;;;;55.00;5.26;100325.81;5034166;28;20523;-65
2021/08/14 07:22:45;;;;;;;5.30;4.85;;;;;;;53.98;5.35;100323.25;5034025;28;20103;-65
2021/08/14 07:25:11;;;;;;;5.03;4.53;;;;;;;53.58;6.12;100320.41;5033493;28;20060;-64
2021/08/14 07:27:36;;;;;;;5.22;4.72;;;;;;;53.74;6.03;100308.56;5033873;28;20029;-63
2021/08/14 07:30:03;;;;;;;5.28;4.78;;;;;;;53.75;6.11;100321.66;5033622;28;20491;-63
2021/08/14 07:32:28;;;;;;;5.00;4.60;;;;;;;54.09;5.81;100315.50;5033394;28;20153;-63
2021/08/14 07:34:55;;;;;;;4.82;4.43;;;;;;;54.11;5.72;100317.13;5032630;28;20091;-63
2021/08/14 07:37:20;;;;;;;5.00;4.40;;;;;;;54.25;5.65;100314.22;5034136;28;20030;-63
2021/08/14 07:39:46;;;;;;;5.15;4.75;;;;;;;52.46;6.59;100314.38;5033926;28;20112;-64
2021/08/14 07:42:12;;;;;;;4.70;4.20;;;;;;;51.68;7.19;100315.03;5033613;28;20127;-65
2021/08/14 07:44:37;;;;;;;4.63;3.95;;;;;;;51.71;7.14;100312.59;5033857;28;20032;-62
2021/08/14 07:47:03;;;;;;;4.43;4.03;;;;;;;48.92;8.77;100289.47;5048679;28;20113;-65
2021/08/14 07:49:28;;;;;;;4.85;3.53;;;;;;;47.37;9.97;100310.13;5033142;28;20387;-63
2021/08/14 07:51:54;;;;;;;6.78;3.90;;;;;;;48.42;9.60;100307.06;5033411;28;20036;-62
2021/08/14 07:54:19;;;;;;;4.35;3.58;;;;;;;49.55;8.33;100302.44;5032517;28;20030;-62
2021/08/14 07:56:45;;;;;;;5.13;3.40;;;;;;;48.62;8.83;100309.94;5033432;28;20098;-64
2021/08/14 07:59:10;;;;;;;3.80;3.45;;;;;;;48.04;9.37;100315.09;5033804;28;20363;-63
2021/08/14 08:01:36;;;;;;;3.40;3.10;;;;;;;48.26;9.09;100298.56;5033608;28;20036;-63
2021/08/14 08:04:02;;;;;;;5.55;3.50;;;;;;;48.24;9.29;100293.25;5033312;28;20533;-63
2021/08/14 08:06:28;;;;;;;6.70;3.70;;;;;;;47.97;9.29;100303.53;5033201;28;20029;-64
2021/08/14 08:08:54;;;;;;;4.75;3.10;;;;;;;47.03;10.43;100301.88;5033317;28;20029;-63
2021/08/14 08:11:19;;;;;;;3.90;3.45;;;;;;;45.15;11.35;100302.25;5033183;28;20029;-63
2021/08/14 08:13:45;;;;;;;7.40;3.85;;;;;;;45.09;11.83;100298.81;5033034;28;20029;-63
2021/08/14 08:16:10;;;;;;;4.15;3.22;;;;;;;44.87;11.75;100303.66;5033042;28;20050;-62
2021/08/14 08:18:36;;;;;;;4.30;3.63;;;;;;;43.35;12.88;100310.72;5031808;28;20152;-62
2021/08/14 08:21:01;;;;;;;5.82;3.88;;;;;;;41.31;15.36;100298.13;5032220;28;20056;-68
2021/08/14 08:23:27;;;;;;;4.13;3.55;;;;;;;39.55;17.03;100301.88;5031893;28;20029;-65
2021/08/14 08:25:52;;;;;;;3.88;3.50;;;;;;;38.00;18.56;100298.47;5031169;28;20029;-64
2021/08/14 08:28:22;;;;;;;4.88;3.50;;;;;;;36.83;19.24;100320.38;5031535;28;20038;-62
2021/08/14 08:30:48;;;;;;;7.90;4.30;;;;;;;35.62;21.24;100315.47;5031707;28;20172;-64
2021/08/14 08:33:14;;;;;;;5.82;3.13;;;;;;;34.81;21.90;100309.53;5031223;28;20033;-62
2021/08/14 08:35:40;;;;;;;4.32;3.10;;;;;;;33.85;23.15;100307.72;5031841;28;20041;-64
2021/08/14 08:38:05;;;;;;;4.05;3.33;;;;;;;33.14;23.76;100289.38;5031977;28;20040;-62
2021/08/14 08:40:42;;;;;;;5.57;2.78;;;;;;;33.01;23.44;100308.13;5031611;28;20033;-65
2021/08/14 08:43:08;;;;;;;6.15;3.40;;;;;;;32.03;25.14;100310.53;5031597;28;20176;-60
2021/08/14 08:45:34;;;;;;;3.85;3.38;;;;;;;31.56;26.18;100308.97;5030250;28;20041;-60
2021/08/14 08:48:02;;;;;;;4.72;3.00;;;;;;;31.14;26.49;100310.19;5031405;28;20021;-59
2021/08/14 08:50:29;;;;;;;5.50;4.10;;;;;;;30.87;27.66;100304.47;5031150;28;20072;-63
2021/08/14 08:52:55;;;;;;;7.55;3.58;;;;;;;30.66;27.47;100315.13;5031197;28;20160;-61
2021/08/14 08:55:24;;;;;;;4.00;3.40;;;;;;;30.59;27.17;100314.38;5031843;28;20112;-62
2021/08/14 08:57:50;;;;;;;4.90;3.38;;;;;;;30.26;27.75;100305.69;5031351;28;20025;-61
2021/08/14 09:00:17;;;;;;;6.10;3.10;;;;;;;30.11;28.31;100308.97;5030881;28;20037;-62
2021/08/14 09:03:03;;;;;;;4.40;3.03;;;;;;;30.06;27.99;100306.09;5031453;28;20037;-65
2021/08/14 09:05:29;;;;;;;6.70;3.63;;;;;;;29.86;28.38;100301.75;5030773;28;20029;-65
2021/08/14 09:07:54;;;;;;;6.80;3.47;;;;;;;29.66;28.55;100299.38;5031291;28;20453;-65
2021/08/14 09:10:24;;;;;;;3.92;3.15;;;;;;;29.68;28.27;100299.97;5031183;28;20477;-64
2021/08/14 09:12:50;;;;;;;4.38;3.10;;;;;;;29.65;28.52;100293.00;5031737;28;20033;-65
2021/08/14 09:15:27;;;;;;;6.88;4.00;;;;;;;29.76;28.31;100296.03;5030743;28;20191;-63
2021/08/14 09:18:03;;;;;;;6.65;3.80;;;;;;;30.00;28.32;100290.47;5031689;28;20029;-67
2021/08/14 09:20:28;;;;;;;;;;;;;;;30.48;26.89;100294.00;5030786;28;20749;-65
2021/08/14 09:23:05;;;;;;;3.95;2.85;;;;;;;30.04;26.70;100291.72;5031201;28;19909;-61
2021/08/14 09:25:39;;;;;;;5.88;3.47;;;;;;;29.84;27.70;100286.53;5031166;28;20037;-60
2021/08/14 09:28:05;;;;;;;8.35;3.60;;;;;;;29.69;28.68;100279.56;5031516;28;20182;-61
2021/08/14 09:30:49;;;;;;;5.65;3.13;;;;;;;29.88;27.64;100263.72;5031230;28;20041;-60
2021/08/14 09:33:17;;;;;;;7.13;3.45;;;;;;;29.76;27.77;100276.69;5031559;28;20049;-60
2021/08/14 09:35:44;;;;;;;4.00;3.50;;;;;;;29.54;28.11;100277.31;5031817;28;20389;-60
2021/08/14 09:38:12;;;;;;;6.85;4.10;;;;;;;29.24;28.69;100269.94;5030971;28;20075;-59
2021/08/14 09:40:45;;;;;;;3.65;3.20;;;;;;;29.29;28.99;100277.47;5029933;28;20037;-59
2021/08/14 09:43:12;;;;;;;5.07;3.25;;;;;;;29.11;28.63;100271.00;5037740;28;20127;-61
2021/08/14 09:45:39;;;;;;;8.45;3.65;;;;;;;29.11;29.39;100279.25;5042594;28;20095;-61
2021/08/14 09:48:15;;;;;;;5.43;3.30;;;;;;;29.27;29.02;100282.38;5025555;28;20029;-60
2021/08/14 09:50:41;;;;;;;4.53;3.47;;;;;;;29.12;29.32;100282.84;5043355;28;20037;-60
2021/08/14 09:53:17;;;;;;;7.43;3.80;;;;;;;29.37;28.69;100277.16;5050859;28;20033;-60
2021/08/14 09:55:45;;;;;;;5.15;3.65;;;;;;;29.46;28.83;100280.44;5010983;28;20080;-59
2021/08/14 09:58:15;;;;;;;4.90;3.40;;;;;;;29.63;28.58;100277.78;4993022;28;20041;-62
2021/08/14 10:00:43;;;;;;;3.50;3.20;;;;;;;29.40;28.51;100275.81;5029197;28;20033;-64
2021/08/14 10:03:13;;;;;;;4.55;3.63;;;;;;;29.20;29.19;100277.84;5029924;28;20469;-67
2021/08/14 10:05:39;;;;;;;4.93;3.55;;;;;;;28.82;29.63;100242.38;5030946;28;20040;-61
2021/08/14 10:08:05;;;;;;;5.53;3.50;;;;;;;28.89;29.67;100255.00;5029211;28;20108;-67
2021/08/14 10:10:32;;;;;;;4.03;3.45;;;;;;;29.21;29.29;100273.16;5028573;28;20036;-65
2021/08/14 10:12:58;;;;;;;7.22;3.50;;;;;;;29.48;29.40;100270.81;5030863;28;20031;-59
2021/08/14 10:15:24;;;;;;;4.35;3.35;;;;;;;29.74;29.32;100260.38;5029288;28;20040;-62
2021/08/14 10:17:50;;;;;;;4.80;3.28;;;;;;;29.94;28.42;100265.53;5030542;28;20034;-61
2021/08/14 10:20:16;;;;;;;6.05;3.22;;;;;;;29.78;27.99;100233.16;5030695;28;20074;-73
2021/08/14 10:22:45;;;;;;;4.57;3.40;;;;;;;29.78;28.46;100255.22;5030881;28;20124;-59
2021/08/14 10:25:18;;;;;;;4.00;3.33;;;;;;;29.60;28.87;100264.47;5039657;28;20544;-59
2021/08/14 10:27:55;;;;;;;4.05;3.25;;;;;;;29.43;29.27;100262.44;5036148;28;20029;-55
2021/08/14 10:30:49;;;;;;;3.92;3.17;;;;;;;29.63;28.77;100264.81;5045404;28;20449;-59
2021/08/14 10:33:27;;;;;;;4.75;3.38;;;;;;;29.86;27.94;100265.06;5041774;28;20064;-54
2021/08/14 10:35:55;;;;;;;3.30;3.05;;;;;;;29.66;29.08;100258.00;5030370;28;20370;-53
2021/08/14 10:38:45;;;;;;;7.40;3.42;;;;;;;29.65;28.86;100261.84;5027230;28;20033;-55
2021/08/14 10:41:12;;;;;;;3.95;3.45;;;;;;;28.99;29.88;100254.44;5028305;28;20501;-58
2021/08/14 10:43:57;;;;;;;5.28;3.20;;;;;;;29.07;29.67;100251.31;5023720;28;20525;-57
2021/08/14 10:46:46;;;;;;;6.13;3.30;;;;;;;29.12;30.28;100258.03;5022594;28;20477;-57
2021/08/14 10:49:33;;;;;;;6.55;3.50;;;;;;;29.00;30.09;100258.00;5037994;28;20124;-53
2021/08/14 10:52:01;;;;;;;4.50;3.53;;;;;;;28.92;30.05;100250.91;5032956;28;20422;-56
2021/08/14 10:54:27;;;;;;;4.82;3.55;;;;;;;28.74;30.19;100244.38;5048010;28;20490;-60
2021/08/14 10:56:54;;;;;;;3.83;3.40;;;;;;;28.49;30.04;100219.72;5044067;28;20167;-57
2021/08/14 10:59:38;;;;;;;5.55;3.83;;;;;;;28.65;30.36;100243.00;5022844;28;20382;-64
2021/08/14 11:02:10;;;;;;;6.00;3.45;;;;;;;28.42;30.61;100243.78;5030066;28;20036;-54
2021/08/14 11:04:37;;;;;;;4.60;3.20;;;;;;;28.32;30.41;100233.31;5046136;28;20600;-59
2021/08/14 11:07:21;;;;;;;4.53;3.60;;;;;;;28.54;30.01;100241.06;5045371;28;20044;-60
2021/08/14 11:09:52;;;;;;;3.60;3.30;;;;;;;28.56;29.56;100234.25;5037155;28;20030;-56
2021/08/14 11:12:31;;;;;;;3.58;3.28;;;;;;;28.69;29.37;100230.44;5049256;28;20036;-54
2021/08/14 11:15:16;;;;;;;5.55;3.30;;;;;;;28.81;29.00;100232.44;5043981;28;20037;-52
2021/08/14 11:17:42;;;;;;;4.05;3.13;;;;;;;28.67;29.38;100223.50;5028670;28;20083;-54
2021/08/14 11:20:29;;;;;;;3.47;3.17;;;;;;;28.88;28.84;100216.66;5027354;28;20802;-55
2021/08/14 11:22:57;;;;;;;4.13;3.28;;;;;;;28.67;29.27;100218.00;5023892;28;20026;-57
2021/08/14 11:25:24;;;;;;;4.57;3.17;;;;;;;28.66;30.43;100211.63;5023550;28;20461;-57